createdAt,value
2022-10-04T00:01:07.947Z,11.80
2022-10-04T00:03:46.403Z,11.80
2022-10-04T00:06:23.814Z,11.80
2022-10-04T00:09:01.027Z,11.80
2022-10-04T00:11:36.683Z,11.80
2022-10-04T00:14:18.596Z,11.76
2022-10-04T00:16:52.904Z,11.70
2022-10-04T00:19:45.741Z,11.70
2022-10-04T00:22:24.666Z,11.70
2022-10-04T00:25:34.724Z,11.70
2022-10-04T00:28:49.663Z,11.70
2022-10-04T00:31:30.779Z,11.70
2022-10-04T00:34:51.388Z,11.64
2022-10-04T00:37:25.551Z,11.60
2022-10-04T00:40:16.889Z,11.60
2022-10-04T00:43:00.057Z,11.60
2022-10-04T00:45:40.704Z,11.60
2022-10-04T00:48:35.870Z,11.50
2022-10-04T00:51:19.654Z,11.50
2022-10-04T00:54:14.175Z,11.40
2022-10-04T00:56:51.693Z,11.34
2022-10-04T00:59:39.920Z,11.30
2022-10-04T01:02:20.094Z,11.20
2022-10-04T01:04:57.435Z,11.20
2022-10-04T01:07:35.405Z,11.10
2022-10-04T01:10:13.035Z,11.10
2022-10-04T01:12:54.635Z,11.00
2022-10-04T01:15:35.938Z,11.00
2022-10-04T01:18:16.864Z,11.00
2022-10-04T01:20:59.193Z,10.90
2022-10-04T01:23:46.981Z,10.90
2022-10-04T01:26:42.427Z,10.84
2022-10-04T01:29:19.259Z,10.80
2022-10-04T01:31:55.167Z,10.80
2022-10-04T01:34:30.448Z,10.78
2022-10-04T01:37:04.030Z,10.80
2022-10-04T01:39:36.671Z,10.80
2022-10-04T01:42:14.188Z,10.80
2022-10-04T01:44:57.806Z,10.80
2022-10-04T01:47:39.287Z,10.84
2022-10-04T01:50:18.270Z,10.90
2022-10-04T01:52:56.203Z,10.90
2022-10-04T01:55:34.317Z,10.90
2022-10-04T01:58:15.367Z,10.90
2022-10-04T02:00:56.083Z,10.94
2022-10-04T02:03:35.426Z,10.94
2022-10-04T02:06:10.913Z,10.94
2022-10-04T02:08:51.927Z,10.94
2022-10-04T02:11:26.764Z,10.90
2022-10-04T02:14:00.585Z,10.90
2022-10-04T02:16:37.459Z,10.90
2022-10-04T02:19:12.298Z,10.90
2022-10-04T02:21:45.773Z,10.84
2022-10-04T02:24:19.638Z,10.80
2022-10-04T02:26:56.194Z,10.80
2022-10-04T02:29:29.488Z,10.88
2022-10-04T02:32:22.088Z,10.90
2022-10-04T02:34:56.183Z,10.90
2022-10-04T02:37:31.625Z,10.90
2022-10-04T02:40:14.090Z,10.90
2022-10-04T02:42:53.706Z,10.90
2022-10-04T02:45:41.404Z,10.90
2022-10-04T02:48:31.274Z,10.80
2022-10-04T02:51:19.936Z,10.80
2022-10-04T02:54:03.666Z,10.70
2022-10-04T02:56:38.543Z,10.70
2022-10-04T02:59:17.843Z,10.70
2022-10-04T03:01:56.051Z,10.62
2022-10-04T03:04:31.834Z,10.60
2022-10-04T03:07:09.638Z,10.60
2022-10-04T03:09:43.032Z,10.60
2022-10-04T03:12:17.195Z,10.54
2022-10-04T03:14:49.870Z,10.50
2022-10-04T03:17:22.919Z,10.50
2022-10-04T03:19:55.901Z,10.50
2022-10-04T03:22:28.805Z,10.50
2022-10-04T03:25:01.729Z,10.50
2022-10-04T03:27:38.088Z,10.40
2022-10-04T03:30:15.932Z,10.40
2022-10-04T03:32:50.180Z,10.40
2022-10-04T03:35:30.692Z,10.32
2022-10-04T03:38:03.313Z,10.30
2022-10-04T03:40:38.681Z,10.30
2022-10-04T03:43:13.718Z,10.22
2022-10-04T03:45:47.142Z,10.20
2022-10-04T03:48:28.828Z,10.20
2022-10-04T03:51:03.697Z,10.20
2022-10-04T03:53:43.617Z,10.20
2022-10-04T03:56:21.874Z,10.20
2022-10-04T03:58:55.763Z,10.20
2022-10-04T04:01:47.218Z,10.20
2022-10-04T04:04:31.537Z,10.20
2022-10-04T04:07:07.900Z,10.20
2022-10-04T04:09:47.081Z,10.20
2022-10-04T04:12:27.310Z,10.20
2022-10-04T04:15:02.355Z,10.20
2022-10-04T04:17:42.890Z,10.20
2022-10-04T04:20:22.156Z,10.20
2022-10-04T04:23:05.476Z,10.12
2022-10-04T04:25:42.134Z,10.10
2022-10-04T04:28:28.256Z,10.10
2022-10-04T04:31:06.159Z,10.10
2022-10-04T04:33:47.533Z,10.10
2022-10-04T04:36:20.462Z,10.10
2022-10-04T04:39:10.785Z,10.10
2022-10-04T04:41:48.247Z,10.10
2022-10-04T04:44:24.158Z,10.10
2022-10-04T04:47:00.871Z,10.16
2022-10-04T04:49:34.802Z,10.20
2022-10-04T04:52:15.075Z,10.20
2022-10-04T04:54:49.075Z,10.20
2022-10-04T04:57:22.506Z,10.20
2022-10-04T04:59:59.562Z,10.20
2022-10-04T05:02:56.170Z,10.20
2022-10-04T05:05:33.301Z,10.22
2022-10-04T05:08:22.512Z,10.20
2022-10-04T05:11:06.030Z,10.20
2022-10-04T05:13:43.680Z,10.20
2022-10-04T05:16:22.426Z,10.20
2022-10-04T05:19:01.158Z,10.20
2022-10-04T05:21:38.594Z,10.20
2022-10-04T05:24:21.741Z,10.20
2022-10-04T05:26:59.633Z,10.28
2022-10-04T05:29:38.503Z,10.30
2022-10-04T05:32:25.238Z,10.30
2022-10-04T05:34:59.730Z,10.40
2022-10-04T05:37:49.219Z,10.40
2022-10-04T05:40:39.488Z,10.50
2022-10-04T05:43:33.370Z,10.60
2022-10-04T05:46:31.253Z,10.60
2022-10-04T05:49:18.192Z,10.70
2022-10-04T05:51:58.140Z,10.80
2022-10-04T05:54:35.907Z,10.90
2022-10-04T05:57:44.029Z,11.00
2022-10-04T06:00:22.013Z,11.06
2022-10-04T06:03:24.169Z,11.10
2022-10-04T06:06:02.397Z,11.10
2022-10-04T06:08:50.861Z,11.20
2022-10-04T06:11:41.346Z,11.20
2022-10-04T06:14:48.106Z,11.20
2022-10-04T06:17:59.596Z,11.30
2022-10-04T06:21:05.167Z,11.26
2022-10-04T06:23:46.119Z,11.30
2022-10-04T06:26:25.251Z,11.40
2022-10-04T06:29:01.763Z,11.60
2022-10-04T06:32:09.327Z,11.60
2022-10-04T06:35:25.000Z,11.70
2022-10-04T06:38:32.999Z,11.80
2022-10-04T06:41:52.489Z,11.80
2022-10-04T06:44:46.298Z,12.00
2022-10-04T06:47:48.952Z,12.10
2022-10-04T06:50:40.980Z,12.20
2022-10-04T06:53:27.995Z,12.40
2022-10-04T06:56:34.470Z,12.52
2022-10-04T06:59:35.467Z,12.80
2022-10-04T07:02:16.193Z,13.10
2022-10-04T07:05:08.181Z,13.30
2022-10-04T07:07:47.873Z,13.40
2022-10-04T07:10:31.146Z,13.50
2022-10-04T07:13:34.372Z,13.60
2022-10-04T07:16:14.674Z,13.60
2022-10-04T07:18:57.885Z,13.60
2022-10-04T07:21:41.499Z,13.70
2022-10-04T07:24:26.111Z,13.70
2022-10-04T07:26:59.993Z,13.70
2022-10-04T07:29:41.931Z,13.80
2022-10-04T07:32:26.427Z,13.90
2022-10-04T07:35:04.016Z,14.10
2022-10-04T07:37:50.315Z,14.20
2022-10-04T07:40:31.500Z,14.30
2022-10-04T07:43:10.553Z,14.30
2022-10-04T07:45:44.760Z,14.40
2022-10-04T07:48:23.461Z,14.54
2022-10-04T07:51:09.766Z,14.90
2022-10-04T07:53:51.760Z,15.20
2022-10-04T07:56:35.500Z,15.26
2022-10-04T07:59:27.192Z,15.82
2022-10-04T08:02:14.506Z,15.88
2022-10-04T08:04:59.928Z,15.90
2022-10-04T08:07:50.013Z,16.10
2022-10-04T08:10:32.835Z,16.52
2022-10-04T08:13:20.383Z,17.10
2022-10-04T08:15:55.843Z,17.56
2022-10-04T08:18:46.847Z,18.00
2022-10-04T08:21:31.985Z,17.90
2022-10-04T08:24:21.929Z,17.80
2022-10-04T08:27:08.986Z,17.30
2022-10-04T08:30:12.274Z,17.20
2022-10-04T08:33:08.063Z,17.82
2022-10-04T08:35:57.582Z,18.04
2022-10-04T08:38:48.183Z,17.60
2022-10-04T08:42:17.079Z,17.20
2022-10-04T08:45:32.692Z,17.38
2022-10-04T08:49:02.635Z,17.82
2022-10-04T08:52:24.218Z,19.28
2022-10-04T08:55:32.429Z,19.96
2022-10-04T08:59:07.065Z,19.62
2022-10-04T09:02:20.053Z,19.86
2022-10-04T09:05:40.300Z,20.12
2022-10-04T09:08:50.441Z,19.72
2022-10-04T09:12:04.698Z,19.24
2022-10-04T09:15:22.636Z,19.82
2022-10-04T09:18:15.794Z,21.48
2022-10-04T09:20:59.260Z,22.20
2022-10-04T09:24:33.682Z,23.22
2022-10-04T09:27:49.929Z,24.50
2022-10-04T09:30:22.645Z,24.10
2022-10-04T09:33:15.059Z,24.52
2022-10-04T09:36:13.765Z,24.88
2022-10-04T09:39:30.697Z,25.36
2022-10-04T09:42:38.798Z,25.34
2022-10-04T09:46:02.519Z,24.14
2022-10-04T09:48:43.857Z,22.76
2022-10-04T09:52:02.101Z,21.54
2022-10-04T09:55:18.506Z,20.56
2022-10-04T09:58:29.711Z,19.40
2022-10-04T10:01:13.244Z,18.40
2022-10-04T10:04:25.652Z,18.00
2022-10-04T10:07:28.689Z,20.60
2022-10-04T10:10:35.095Z,23.22
2022-10-04T10:13:40.877Z,22.84
2022-10-04T10:16:31.917Z,21.40
2022-10-04T10:19:32.030Z,20.70
2022-10-04T10:22:28.219Z,20.74
2022-10-04T10:25:28.990Z,21.82
2022-10-04T10:28:43.693Z,21.24
2022-10-04T10:31:56.832Z,23.74
2022-10-04T10:35:10.509Z,25.56
2022-10-04T10:38:04.315Z,23.98
2022-10-04T10:41:19.996Z,22.32
2022-10-04T10:44:13.324Z,20.60
2022-10-04T10:47:04.347Z,22.66
2022-10-04T10:50:00.459Z,25.22
2022-10-04T10:53:23.825Z,27.26
2022-10-04T10:56:39.985Z,28.92
2022-10-04T11:00:14.364Z,30.00
2022-10-04T11:03:23.982Z,29.56
2022-10-04T11:06:18.490Z,28.14
2022-10-04T11:09:35.676Z,26.90
2022-10-04T11:13:03.085Z,26.80
2022-10-04T11:16:19.950Z,26.98
2022-10-04T11:19:50.633Z,28.74
2022-10-04T11:23:36.198Z,30.36
2022-10-04T11:26:46.911Z,31.84
2022-10-04T11:29:36.249Z,31.30
2022-10-04T11:32:47.749Z,31.46
2022-10-04T11:36:03.252Z,32.32
2022-10-04T11:39:30.592Z,32.70
2022-10-04T11:42:19.256Z,30.02
2022-10-04T11:45:17.752Z,27.30
2022-10-04T11:48:03.931Z,24.76
2022-10-04T11:50:52.481Z,23.06
2022-10-04T11:54:10.112Z,22.10
2022-10-04T11:57:08.703Z,22.44
2022-10-04T11:59:57.456Z,25.50
2022-10-04T12:03:10.970Z,27.54
2022-10-04T12:06:24.739Z,26.54
2022-10-04T12:09:14.517Z,24.58
2022-10-04T12:12:36.557Z,23.20
2022-10-04T12:15:39.712Z,23.96
2022-10-04T12:19:15.714Z,26.54
2022-10-04T12:22:28.240Z,29.32
2022-10-04T12:25:39.310Z,31.24
2022-10-04T12:28:43.276Z,32.58
2022-10-04T12:31:28.817Z,33.20
2022-10-04T12:34:18.170Z,33.86
2022-10-04T12:37:07.450Z,34.22
2022-10-04T12:40:06.876Z,34.64
2022-10-04T12:42:48.622Z,34.90
2022-10-04T12:45:50.695Z,33.72
2022-10-04T12:48:54.215Z,33.38
2022-10-04T12:51:44.318Z,33.30
2022-10-04T12:54:34.546Z,33.70
2022-10-04T12:57:53.149Z,34.20
2022-10-04T13:00:25.729Z,34.18
2022-10-04T13:03:24.116Z,34.40
2022-10-04T13:06:08.992Z,34.40
2022-10-04T13:08:57.938Z,34.90
2022-10-04T13:12:05.235Z,34.90
2022-10-04T13:15:14.815Z,35.24
2022-10-04T13:18:00.806Z,35.48
2022-10-04T13:20:51.157Z,35.40
2022-10-04T13:23:51.400Z,35.30
2022-10-04T13:26:49.159Z,34.86
2022-10-04T13:29:33.729Z,34.70
2022-10-04T13:32:15.198Z,34.70
2022-10-04T13:34:55.884Z,34.70
2022-10-04T13:37:42.197Z,34.50
2022-10-04T13:40:37.381Z,33.68
2022-10-04T13:43:48.452Z,31.04
2022-10-04T13:46:36.114Z,27.96
2022-10-04T13:49:27.926Z,25.84
2022-10-04T13:52:35.926Z,23.96
2022-10-04T13:55:43.722Z,22.52
2022-10-04T13:58:36.694Z,21.10
2022-10-04T14:02:02.604Z,20.02
2022-10-04T14:05:01.040Z,19.22
2022-10-04T14:08:13.853Z,18.78
2022-10-04T14:11:38.444Z,18.40
2022-10-04T14:14:59.737Z,18.10
2022-10-04T14:18:12.955Z,17.88
2022-10-04T14:21:34.808Z,17.80
2022-10-04T14:24:44.948Z,17.70
2022-10-04T14:27:59.963Z,17.70
2022-10-04T14:30:51.649Z,17.70
2022-10-04T14:34:24.026Z,17.70
2022-10-04T14:37:26.099Z,17.72
2022-10-04T14:40:20.387Z,17.70
2022-10-04T14:43:14.997Z,17.70
2022-10-04T14:46:10.159Z,17.70
2022-10-04T14:49:11.388Z,17.60
2022-10-04T14:52:09.949Z,17.48
2022-10-04T14:54:54.886Z,17.20
2022-10-04T14:57:52.757Z,16.92
2022-10-04T15:00:30.193Z,16.76
2022-10-04T15:03:47.776Z,16.60
2022-10-04T15:06:30.525Z,16.40
2022-10-04T15:09:26.626Z,16.30
2022-10-04T15:15:45.331Z,16.10
2022-10-04T15:18:39.180Z,16.00
2022-10-04T15:21:33.267Z,15.90
2022-10-04T15:24:29.699Z,15.80
2022-10-04T15:27:55.676Z,15.80
2022-10-04T15:30:49.102Z,15.70
2022-10-04T15:33:35.215Z,15.60
2022-10-04T15:36:50.961Z,15.60
2022-10-04T15:39:48.598Z,15.50
2022-10-04T15:42:30.746Z,15.48
2022-10-04T15:45:32.694Z,15.40
2022-10-04T15:48:33.232Z,15.30
2022-10-04T15:51:11.422Z,15.30
2022-10-04T15:54:18.744Z,15.20
2022-10-04T15:57:00.674Z,15.20
2022-10-04T15:59:47.885Z,15.10
2022-10-04T16:02:48.898Z,15.00
2022-10-04T16:05:36.598Z,15.00
2022-10-04T16:08:53.158Z,14.90
2022-10-04T16:11:49.087Z,14.80
2022-10-04T16:15:01.819Z,14.64
2022-10-04T16:17:53.940Z,14.50
2022-10-04T16:20:57.494Z,14.40
2022-10-04T16:23:34.279Z,14.30
2022-10-04T16:26:10.444Z,14.20
2022-10-04T16:29:14.959Z,14.10
2022-10-04T16:31:56.181Z,14.00
2022-10-04T16:34:54.554Z,13.90
2022-10-04T16:37:39.759Z,13.80
2022-10-04T16:40:35.859Z,13.70
2022-10-04T16:43:24.938Z,13.60
2022-10-04T16:46:20.326Z,13.50
2022-10-04T16:48:58.679Z,13.40
2022-10-04T16:52:03.375Z,13.30
2022-10-04T16:55:02.495Z,13.26
2022-10-04T16:57:35.155Z,13.20
2022-10-04T17:03:31.869Z,13.00
2022-10-04T17:06:17.279Z,13.00
2022-10-04T17:09:09.435Z,13.00
2022-10-04T17:12:11.317Z,13.00
2022-10-04T17:15:08.451Z,13.00
2022-10-04T17:17:52.105Z,13.00
2022-10-04T17:20:40.947Z,13.00
2022-10-04T17:23:42.259Z,13.00
2022-10-04T17:26:30.237Z,13.00
2022-10-04T17:29:18.326Z,13.00
2022-10-04T17:32:00.085Z,12.90
2022-10-04T17:34:49.999Z,12.90
2022-10-04T17:37:40.860Z,12.90
2022-10-04T17:40:36.521Z,12.90
2022-10-04T17:43:20.408Z,12.80
2022-10-04T17:46:19.583Z,12.80
2022-10-04T17:49:18.553Z,12.74
2022-10-04T17:52:13.668Z,12.70
2022-10-04T17:55:08.834Z,12.70
2022-10-04T17:57:49.723Z,12.50
2022-10-04T18:00:25.271Z,12.40
2022-10-04T18:03:17.907Z,12.30
2022-10-04T18:05:58.128Z,12.20
2022-10-04T18:08:51.775Z,12.10
2022-10-04T18:11:35.824Z,12.00
2022-10-04T18:14:23.102Z,11.90
2022-10-04T18:17:00.187Z,11.80
2022-10-04T18:19:55.417Z,11.70
2022-10-04T18:22:43.730Z,11.60
2022-10-04T18:25:27.993Z,11.46
2022-10-04T18:28:22.667Z,11.30
2022-10-04T18:31:20.889Z,11.26
2022-10-04T18:34:01.674Z,11.20
2022-10-04T18:36:56.377Z,11.10
2022-10-04T18:39:32.043Z,11.10
2022-10-04T18:42:29.975Z,11.10
2022-10-04T18:45:24.662Z,11.00
2022-10-04T18:48:05.067Z,11.00
2022-10-04T18:50:48.179Z,11.00
2022-10-04T18:54:00.086Z,10.90
2022-10-04T18:56:48.068Z,10.92
2022-10-04T18:59:53.721Z,10.94
2022-10-04T19:02:44.434Z,11.00
2022-10-04T19:05:34.225Z,11.00
2022-10-04T19:08:32.167Z,10.90
2022-10-04T19:11:20.541Z,10.80
2022-10-04T19:14:19.216Z,10.80
2022-10-04T19:17:04.151Z,10.70
2022-10-04T19:19:58.755Z,10.70
2022-10-04T19:22:53.505Z,10.68
2022-10-04T19:25:48.736Z,10.60
2022-10-04T19:28:39.444Z,10.60
2022-10-04T19:31:26.757Z,10.60
2022-10-04T19:34:10.138Z,10.60
2022-10-04T19:36:55.218Z,10.50
2022-10-04T19:39:41.640Z,10.40
2022-10-04T19:42:20.639Z,10.40
2022-10-04T19:45:16.566Z,10.40
2022-10-04T19:47:56.962Z,10.34
2022-10-04T19:50:36.978Z,10.36
2022-10-04T19:53:19.898Z,10.40
2022-10-04T19:55:59.057Z,10.36
2022-10-04T19:58:44.607Z,10.30
2022-10-04T20:01:21.399Z,10.30
2022-10-04T20:04:09.626Z,10.30
2022-10-04T20:06:51.245Z,10.22
2022-10-04T20:09:51.954Z,10.20
2022-10-04T20:12:39.322Z,10.10
2022-10-04T20:15:46.733Z,10.10
2022-10-04T20:19:20.101Z,10.02
2022-10-04T20:21:54.705Z,10.00
2022-10-04T20:24:54.263Z,10.00
2022-10-04T20:28:04.184Z,9.98
2022-10-04T20:30:57.957Z,9.90
2022-10-04T20:34:32.176Z,9.80
2022-10-04T20:37:06.625Z,9.80
2022-10-04T20:40:07.359Z,9.80
2022-10-04T20:42:40.198Z,9.70
2022-10-04T20:45:28.431Z,9.70
2022-10-04T20:48:01.944Z,9.60
2022-10-04T20:50:39.523Z,9.60
2022-10-04T20:53:22.396Z,9.52
2022-10-04T20:56:12.891Z,9.50
2022-10-04T20:58:51.887Z,9.50
2022-10-04T21:01:46.992Z,9.40
2022-10-04T21:04:30.423Z,9.40
2022-10-04T21:07:06.104Z,9.40
2022-10-04T21:09:41.798Z,9.40
2022-10-04T21:12:38.315Z,9.40
2022-10-04T21:15:25.088Z,9.32
2022-10-04T21:18:11.130Z,9.30
2022-10-04T21:20:49.064Z,9.30
2022-10-04T21:23:33.630Z,9.30
2022-10-04T21:26:26.560Z,9.30
2022-10-04T21:29:01.725Z,9.30
2022-10-04T21:31:35.393Z,9.22
2022-10-04T21:34:08.621Z,9.20
2022-10-04T21:36:42.511Z,9.18
2022-10-04T21:39:15.722Z,9.10
2022-10-04T21:41:48.883Z,9.10
2022-10-04T21:44:21.898Z,9.10
2022-10-04T21:46:55.394Z,9.10
2022-10-04T21:49:28.547Z,9.10
2022-10-04T21:52:01.536Z,9.02
2022-10-04T21:54:34.561Z,9.00
2022-10-04T21:57:07.904Z,9.00
2022-10-04T21:59:40.948Z,9.00
2022-10-04T22:02:14.086Z,9.00
2022-10-04T22:04:47.186Z,9.00
2022-10-04T22:07:20.226Z,8.90
2022-10-04T22:09:53.117Z,8.90
2022-10-04T22:12:27.111Z,8.90
2022-10-04T22:15:00.298Z,8.82
2022-10-04T22:17:33.291Z,8.80
2022-10-04T22:20:07.603Z,8.80
2022-10-04T22:22:40.695Z,8.80
2022-10-04T22:25:21.891Z,8.80
2022-10-04T22:27:55.566Z,8.78
2022-10-04T22:30:31.636Z,8.70
2022-10-04T22:33:24.194Z,8.70
2022-10-04T22:35:59.305Z,8.70
2022-10-04T22:38:32.407Z,8.70
2022-10-04T22:41:07.261Z,8.68
2022-10-04T22:43:40.431Z,8.60
2022-10-04T22:46:19.832Z,8.60
2022-10-04T22:48:52.985Z,8.60
2022-10-04T22:51:28.481Z,8.50
2022-10-04T22:54:01.754Z,8.50
2022-10-04T22:56:34.789Z,8.50
2022-10-04T22:59:10.421Z,8.50
2022-10-04T23:01:44.702Z,8.50
2022-10-04T23:04:22.002Z,8.42
2022-10-04T23:06:55.766Z,8.40
2022-10-04T23:09:28.765Z,8.40
2022-10-04T23:12:01.826Z,8.40
2022-10-04T23:14:38.101Z,8.40
2022-10-04T23:17:25.407Z,8.40
2022-10-04T23:20:02.529Z,8.38
2022-10-04T23:22:35.681Z,8.30
2022-10-04T23:25:18.906Z,8.30
2022-10-04T23:27:52.259Z,8.30
2022-10-04T23:30:25.917Z,8.20
2022-10-04T23:33:03.051Z,8.20
2022-10-04T23:35:36.981Z,8.20
2022-10-04T23:38:14.605Z,8.20
2022-10-04T23:40:47.896Z,8.20
2022-10-04T23:43:25.923Z,8.14
2022-10-04T23:46:00.848Z,8.10
2022-10-04T23:48:34.335Z,8.10
2022-10-04T23:51:07.737Z,8.10
2022-10-04T23:53:41.336Z,8.10
2022-10-04T23:56:21.698Z,8.10
2022-10-04T23:58:58.489Z,8.06
